createdAt,value
2018-06-23T00:02:26.294Z,4.60
2018-06-23T00:04:59.552Z,5.00
2018-06-23T00:07:32.878Z,4.83
2018-06-23T00:10:06.300Z,5.07
2018-06-23T00:12:39.584Z,4.97
2018-06-23T00:15:12.749Z,4.73
2018-06-23T00:17:46.093Z,5.50
2018-06-23T00:20:19.369Z,5.20
2018-06-23T00:22:52.660Z,4.97
2018-06-23T00:25:31.781Z,5.10
2018-06-23T00:28:05.060Z,4.90
2018-06-23T00:30:38.348Z,5.30
2018-06-23T00:33:11.829Z,5.00
2018-06-23T00:35:45.143Z,4.77
2018-06-23T00:38:18.336Z,5.10
2018-06-23T00:40:51.633Z,5.20
2018-06-23T00:43:24.776Z,5.17
2018-06-23T00:45:58.192Z,4.80
2018-06-23T00:48:31.549Z,5.07
2018-06-23T00:51:04.801Z,4.90
2018-06-23T00:53:38.075Z,5.00
2018-06-23T00:56:11.292Z,4.93
2018-06-23T00:58:50.333Z,4.50
2018-06-23T01:01:23.784Z,5.10
2018-06-23T01:03:57.037Z,4.83
2018-06-23T01:06:30.296Z,5.63
2018-06-23T01:09:06.299Z,5.13
2018-06-23T01:11:39.587Z,5.70
2018-06-23T01:14:12.786Z,5.60
2018-06-23T01:16:46.040Z,4.90
2018-06-23T01:19:19.416Z,4.93
2018-06-23T01:21:52.677Z,4.35
2018-06-23T01:24:26.612Z,4.73
2018-06-23T01:26:59.928Z,5.27
2018-06-23T01:29:33.310Z,5.27
2018-06-23T01:32:06.656Z,5.63
2018-06-23T01:34:40.000Z,5.27
2018-06-23T01:37:13.205Z,4.73
2018-06-23T01:39:46.576Z,4.83
2018-06-23T01:42:19.752Z,5.60
2018-06-23T01:44:53.048Z,5.30
2018-06-23T01:47:26.437Z,5.53
2018-06-23T01:49:59.775Z,5.53
2018-06-23T01:52:33.128Z,6.67
2018-06-23T01:55:06.417Z,5.30
2018-06-23T01:57:39.784Z,5.13
2018-06-23T02:00:13.249Z,5.50
2018-06-23T02:02:46.428Z,5.43
2018-06-23T02:05:19.896Z,5.10
2018-06-23T02:07:53.216Z,5.67
2018-06-23T02:10:26.430Z,4.90
2018-06-23T02:12:59.741Z,5.50
2018-06-23T02:15:38.600Z,5.00
2018-06-23T02:18:17.600Z,5.40
2018-06-23T02:20:56.537Z,6.10
2018-06-23T02:23:35.417Z,5.87
2018-06-23T02:28:17.856Z,5.23
2018-06-23T02:30:56.963Z,5.50
2018-06-23T02:33:36.156Z,6.03
2018-06-23T02:36:09.412Z,6.13
2018-06-23T02:38:42.768Z,6.27
2018-06-23T02:41:16.158Z,6.37
2018-06-23T02:43:49.532Z,6.10
2018-06-23T02:46:22.687Z,6.20
2018-06-23T02:48:55.928Z,6.50
2018-06-23T02:51:29.240Z,5.30
2018-06-23T02:54:02.511Z,6.23
2018-06-23T02:56:35.707Z,5.47
2018-06-23T02:59:08.975Z,6.07
2018-06-23T03:01:42.200Z,6.10
2018-06-23T03:04:15.857Z,6.60
2018-06-23T03:06:49.141Z,5.70
2018-06-23T03:09:22.504Z,5.90
2018-06-23T03:11:55.758Z,6.10
2018-06-23T03:14:29.161Z,5.43
2018-06-23T03:17:02.625Z,6.37
2018-06-23T03:19:35.932Z,6.20
2018-06-23T03:22:09.098Z,6.93
2018-06-23T03:24:42.526Z,6.40
2018-06-23T03:27:15.701Z,5.83
2018-06-23T03:29:49.112Z,6.63
2018-06-23T03:32:22.493Z,5.80
2018-06-23T03:34:55.825Z,6.47
2018-06-23T03:37:29.205Z,6.53
2018-06-23T03:40:02.712Z,6.70
2018-06-23T03:42:36.060Z,6.80
2018-06-23T03:45:09.370Z,6.73
2018-06-23T03:47:42.557Z,6.83
2018-06-23T03:50:15.761Z,7.00
2018-06-23T03:52:49.031Z,6.60
2018-06-23T03:55:22.771Z,7.53
2018-06-23T03:57:56.003Z,6.90
2018-06-23T04:00:29.400Z,7.80
2018-06-23T04:03:02.773Z,7.00
2018-06-23T04:05:36.622Z,6.70
2018-06-23T04:08:10.038Z,6.90
2018-06-23T04:10:43.312Z,7.03
2018-06-23T04:13:16.683Z,7.57
2018-06-23T04:15:49.932Z,7.47
2018-06-23T04:18:23.208Z,6.63
2018-06-23T04:20:56.593Z,6.40
2018-06-23T04:23:29.816Z,7.67
2018-06-23T04:26:03.026Z,7.23
2018-06-23T04:28:36.271Z,7.57
2018-06-23T04:31:09.516Z,7.23
2018-06-23T04:33:43.006Z,7.53
2018-06-23T04:36:16.231Z,7.03
2018-06-23T04:38:49.588Z,6.90
2018-06-23T04:41:22.860Z,7.73
2018-06-23T04:43:56.128Z,6.73
2018-06-23T04:46:29.505Z,6.43
2018-06-23T04:49:02.836Z,7.53
2018-06-23T04:51:36.184Z,7.03
2018-06-23T04:54:09.388Z,6.97
2018-06-23T04:56:42.609Z,6.53
2018-06-23T04:59:15.988Z,7.13
2018-06-23T05:01:49.281Z,7.00
2018-06-23T05:04:22.551Z,7.60
2018-06-23T05:06:55.880Z,7.63
2018-06-23T05:09:29.057Z,8.13
2018-06-23T05:12:02.304Z,7.43
2018-06-23T05:14:35.579Z,7.60
2018-06-23T05:17:08.830Z,7.07
2018-06-23T05:19:42.112Z,7.37
2018-06-23T05:22:15.359Z,6.97
2018-06-23T05:24:48.997Z,7.20
2018-06-23T05:27:22.241Z,6.80
2018-06-23T05:29:55.485Z,7.20
2018-06-23T05:32:28.665Z,7.90
2018-06-23T05:35:02.124Z,7.17
2018-06-23T05:37:35.504Z,7.77
2018-06-23T05:40:08.700Z,7.17
2018-06-23T05:42:42.098Z,7.17
2018-06-23T05:45:15.492Z,7.23
2018-06-23T05:47:48.848Z,7.57
2018-06-23T05:50:22.146Z,6.97
2018-06-23T05:52:55.432Z,6.90
2018-06-23T05:55:28.816Z,6.85
2018-06-23T05:58:02.168Z,7.05
2018-06-23T06:00:35.988Z,7.00
2018-06-23T06:03:09.277Z,6.87
2018-06-23T06:05:42.513Z,7.00
2018-06-23T06:08:15.744Z,7.33
2018-06-23T06:10:49.001Z,6.87
2018-06-23T06:13:22.209Z,7.87
2018-06-23T06:15:55.603Z,7.25
2018-06-23T06:18:28.963Z,7.20
2018-06-23T06:21:02.174Z,7.67
2018-06-23T06:23:35.528Z,6.93
2018-06-23T06:26:08.909Z,6.37
2018-06-23T06:28:42.066Z,7.27
2018-06-23T06:31:15.464Z,7.20
2018-06-23T06:33:48.764Z,6.77
2018-06-23T06:36:21.945Z,6.10
2018-06-23T06:38:55.281Z,7.30
2018-06-23T06:41:28.637Z,7.10
2018-06-23T06:44:02.144Z,6.50
2018-06-23T06:46:35.436Z,6.50
2018-06-23T06:49:08.644Z,6.13
2018-06-23T06:51:41.881Z,5.87
2018-06-23T06:54:15.229Z,5.80
2018-06-23T06:56:49.681Z,5.20
2018-06-23T06:59:23.057Z,5.70
2018-06-23T07:01:56.380Z,5.43
2018-06-23T07:04:29.588Z,5.30
2018-06-23T07:07:02.873Z,5.63
2018-06-23T07:09:36.084Z,5.30
2018-06-23T07:12:09.291Z,4.33
2018-06-23T07:14:42.676Z,4.13
2018-06-23T07:17:16.056Z,3.63
2018-06-23T07:19:49.387Z,3.73
2018-06-23T07:22:22.751Z,4.77
2018-06-23T07:24:56.050Z,3.53
2018-06-23T07:27:29.177Z,3.83
2018-06-23T07:30:02.378Z,3.57
2018-06-23T07:32:35.929Z,3.73
2018-06-23T07:35:09.186Z,4.00
2018-06-23T07:37:42.400Z,3.63
2018-06-23T07:40:15.758Z,3.60
2018-06-23T07:42:49.073Z,3.97
2018-06-23T07:45:22.324Z,4.07
2018-06-23T07:47:55.539Z,4.40
2018-06-23T07:50:29.154Z,4.23
2018-06-23T07:53:02.566Z,4.63
2018-06-23T07:55:35.915Z,3.63
2018-06-23T07:58:09.354Z,3.73
2018-06-23T08:00:42.697Z,4.00
2018-06-23T08:03:16.064Z,4.23
2018-06-23T08:05:49.324Z,4.07
2018-06-23T08:08:22.763Z,4.10
2018-06-23T08:10:56.320Z,4.60
2018-06-23T08:13:29.592Z,3.97
2018-06-23T08:16:03.053Z,4.27
2018-06-23T08:18:36.366Z,3.90
2018-06-23T08:21:09.708Z,4.00
2018-06-23T08:23:42.951Z,3.73
2018-06-23T08:26:16.195Z,3.80
2018-06-23T08:28:49.491Z,3.67
2018-06-23T08:31:22.664Z,3.80
2018-06-23T08:33:55.997Z,3.30
2018-06-23T08:36:29.394Z,4.53
2018-06-23T08:39:03.889Z,3.50
2018-06-23T08:41:37.176Z,3.97
2018-06-23T08:44:10.412Z,3.80
2018-06-23T08:46:43.740Z,3.80
2018-06-23T08:49:17.179Z,3.70
2018-06-23T08:51:50.450Z,3.37
2018-06-23T08:54:23.799Z,3.30
2018-06-23T08:56:57.207Z,3.80
2018-06-23T08:59:30.510Z,3.93
2018-06-23T09:02:03.906Z,3.70
2018-06-23T09:04:37.257Z,3.83
2018-06-23T09:07:10.604Z,3.80
2018-06-23T09:09:43.928Z,3.60
2018-06-23T09:12:17.441Z,4.07
2018-06-23T09:14:50.620Z,3.30
2018-06-23T09:17:23.824Z,3.40
2018-06-23T09:19:57.041Z,3.97
2018-06-23T09:22:30.229Z,3.30
2018-06-23T09:25:03.560Z,3.87
2018-06-23T09:27:36.898Z,3.47
2018-06-23T09:30:12.309Z,3.50
2018-06-23T09:32:45.589Z,3.57
2018-06-23T09:35:19.049Z,3.90
2018-06-23T09:37:52.427Z,3.73
2018-06-23T09:40:25.652Z,4.47
2018-06-23T09:42:58.877Z,4.20
2018-06-23T09:45:32.149Z,4.30
2018-06-23T09:48:05.566Z,4.00
2018-06-23T09:50:38.921Z,4.00
2018-06-23T09:53:12.148Z,3.80
2018-06-23T09:55:45.398Z,3.70
2018-06-23T09:58:18.777Z,3.27
2018-06-23T10:00:52.161Z,4.07
2018-06-23T10:03:25.517Z,4.83
2018-06-23T10:05:58.792Z,3.90
2018-06-23T10:08:32.227Z,3.80
2018-06-23T10:11:05.577Z,3.60
2018-06-23T10:13:39.178Z,3.67
2018-06-23T10:16:12.532Z,3.57
2018-06-23T10:18:45.897Z,4.40
2018-06-23T10:21:19.127Z,4.37
2018-06-23T10:23:52.530Z,3.83
2018-06-23T10:26:25.860Z,3.40
2018-06-23T10:28:59.173Z,3.60
2018-06-23T10:31:32.398Z,3.50
2018-06-23T10:34:06.141Z,3.67
2018-06-23T10:36:39.380Z,3.97
2018-06-23T10:39:12.560Z,3.80
2018-06-23T10:41:45.920Z,3.73
2018-06-23T10:44:19.241Z,3.70
2018-06-23T10:46:52.641Z,3.50
2018-06-23T10:49:26.029Z,3.30
2018-06-23T10:51:59.337Z,3.40
2018-06-23T10:54:32.592Z,3.37
2018-06-23T10:57:05.808Z,2.93
2018-06-23T10:59:39.186Z,3.17
2018-06-23T11:02:12.549Z,3.07
2018-06-23T11:04:45.903Z,3.20
2018-06-23T11:07:19.216Z,3.40
2018-06-23T11:09:52.448Z,3.13
2018-06-23T11:12:25.848Z,3.60
2018-06-23T11:14:59.048Z,3.47
2018-06-23T11:17:32.233Z,3.40
2018-06-23T11:20:06.069Z,3.33
2018-06-23T11:22:39.868Z,3.17
2018-06-23T11:25:13.276Z,3.37
2018-06-23T11:27:46.536Z,3.40
2018-06-23T11:30:19.836Z,3.63
2018-06-23T11:32:53.252Z,3.07
2018-06-23T11:35:26.517Z,3.10
2018-06-23T11:37:59.877Z,2.90
2018-06-23T11:40:33.093Z,3.23
2018-06-23T11:43:06.465Z,3.40
2018-06-23T11:45:39.694Z,3.33
2018-06-23T11:48:13.063Z,3.70
2018-06-23T11:50:46.400Z,3.50
2018-06-23T11:53:19.736Z,3.37
2018-06-23T11:55:53.097Z,3.37
2018-06-23T11:58:26.413Z,3.37
2018-06-23T12:00:59.778Z,3.17
2018-06-23T12:03:33.140Z,3.83
2018-06-23T12:06:06.392Z,3.57
2018-06-23T12:08:39.637Z,3.47
2018-06-23T12:11:13.043Z,3.87
2018-06-23T12:13:46.260Z,3.57
2018-06-23T12:16:20.396Z,3.77
2018-06-23T12:18:53.845Z,3.50
2018-06-23T12:21:27.128Z,3.80
2018-06-23T12:24:00.428Z,3.70
2018-06-23T12:26:33.980Z,3.90
2018-06-23T12:29:07.160Z,4.60
2018-06-23T12:31:40.457Z,4.20
2018-06-23T12:34:13.702Z,3.90
2018-06-23T12:36:47.018Z,3.93
2018-06-23T12:39:20.412Z,4.30
2018-06-23T12:41:53.734Z,3.90
2018-06-23T12:44:27.105Z,4.53
2018-06-23T12:47:00.445Z,4.33
2018-06-23T12:49:33.845Z,3.70
2018-06-23T12:52:07.245Z,3.77
2018-06-23T12:54:40.609Z,4.77
2018-06-23T12:57:13.956Z,4.47
2018-06-23T12:59:47.316Z,4.07
2018-06-23T13:02:20.533Z,3.57
2018-06-23T13:04:53.852Z,4.50
2018-06-23T13:07:27.072Z,4.60
2018-06-23T13:10:00.484Z,4.60
2018-06-23T13:12:33.861Z,4.20
2018-06-23T13:15:07.510Z,4.10
2018-06-23T13:17:40.781Z,4.20
2018-06-23T13:20:14.029Z,5.70
2018-06-23T13:22:47.276Z,4.93
2018-06-23T13:25:20.524Z,4.20
2018-06-23T13:27:53.898Z,4.17
2018-06-23T13:30:28.465Z,4.10
2018-06-23T13:33:01.848Z,4.07
2018-06-23T13:35:35.080Z,4.53
2018-06-23T13:38:08.257Z,4.30
2018-06-23T13:40:41.597Z,5.00
2018-06-23T13:43:14.992Z,4.70
2018-06-23T13:45:48.221Z,4.50
2018-06-23T13:48:21.376Z,3.90
2018-06-23T13:50:54.744Z,4.30
2018-06-23T13:53:28.252Z,4.10
2018-06-23T13:56:01.437Z,3.87
2018-06-23T13:58:34.656Z,4.43
2018-06-23T14:01:08.048Z,4.70
2018-06-23T14:03:41.230Z,4.37
2018-06-23T14:06:14.525Z,4.30
2018-06-23T14:08:47.748Z,5.00
2018-06-23T14:11:21.277Z,4.67
2018-06-23T14:13:54.516Z,4.37
2018-06-23T14:16:27.917Z,4.07
2018-06-23T14:19:01.277Z,4.83
2018-06-23T14:21:34.497Z,4.83
2018-06-23T14:24:07.928Z,4.30
2018-06-23T14:26:41.177Z,4.10
2018-06-23T14:29:14.401Z,4.53
2018-06-23T14:31:47.945Z,4.20
2018-06-23T14:34:20.967Z,4.50
2018-06-23T14:36:54.252Z,4.60
2018-06-23T14:39:27.580Z,4.03
2018-06-23T14:42:00.816Z,4.10
2018-06-23T14:44:34.168Z,3.83
2018-06-23T14:47:07.365Z,3.60
2018-06-23T14:49:40.612Z,3.40
2018-06-23T14:52:13.844Z,3.47
2018-06-23T14:54:47.182Z,4.00
2018-06-23T14:57:20.621Z,4.33
2018-06-23T14:59:53.901Z,3.70
2018-06-23T15:02:27.272Z,4.27
2018-06-23T15:05:00.495Z,4.37
2018-06-23T15:07:33.672Z,4.27
2018-06-23T15:10:18.576Z,3.60
2018-06-23T15:13:03.369Z,3.90
2018-06-23T15:15:36.713Z,3.80
2018-06-23T15:18:10.025Z,4.40
2018-06-23T15:20:43.369Z,3.70
2018-06-23T15:23:16.768Z,3.57
2018-06-23T15:25:50.093Z,4.00
2018-06-23T15:28:23.268Z,3.80
2018-06-23T15:30:56.576Z,3.57
2018-06-23T15:33:29.972Z,3.70
2018-06-23T15:36:03.293Z,3.30
2018-06-23T15:38:36.598Z,3.40
2018-06-23T15:41:09.810Z,3.40
2018-06-23T15:43:43.116Z,3.27
2018-06-23T15:46:16.344Z,3.73
2018-06-23T15:48:49.717Z,3.57
2018-06-23T15:51:22.964Z,3.80
2018-06-23T15:53:56.283Z,3.90
2018-06-23T15:56:29.513Z,3.50
2018-06-23T15:59:02.685Z,3.70
2018-06-23T16:01:36.017Z,3.40
2018-06-23T16:04:09.364Z,3.40
2018-06-23T16:06:42.732Z,3.50
2018-06-23T16:09:16.127Z,4.00
2018-06-23T16:11:49.539Z,3.80
2018-06-23T16:14:22.947Z,3.60
2018-06-23T16:16:56.435Z,3.80
2018-06-23T16:19:29.780Z,3.50
2018-06-23T16:22:03.232Z,3.43
2018-06-23T16:24:36.454Z,3.03
2018-06-23T16:27:09.641Z,2.30
2018-06-23T16:29:42.980Z,2.70
2018-06-23T16:32:16.405Z,2.90
2018-06-23T16:34:49.852Z,3.00
2018-06-23T16:37:23.147Z,2.20
2018-06-23T16:39:56.476Z,2.60
2018-06-23T16:42:29.988Z,2.27
2018-06-23T16:45:03.703Z,2.30
2018-06-23T16:47:37.094Z,2.60
2018-06-23T16:50:10.429Z,2.60
2018-06-23T16:52:43.704Z,2.50
2018-06-23T16:55:17.120Z,2.60
2018-06-23T16:57:50.388Z,2.33
2018-06-23T17:00:23.585Z,2.17
2018-06-23T17:02:56.855Z,2.10
2018-06-23T17:05:30.034Z,2.60
2018-06-23T17:08:03.457Z,2.17
2018-06-23T17:10:36.721Z,2.20
2018-06-23T17:13:10.080Z,2.50
2018-06-23T17:15:43.428Z,2.57
2018-06-23T17:18:16.800Z,2.60
2018-06-23T17:20:50.046Z,2.40
2018-06-23T17:23:23.237Z,2.17
2018-06-23T17:25:56.596Z,2.80
2018-06-23T17:28:29.825Z,2.60
2018-06-23T17:31:02.982Z,2.50
2018-06-23T17:33:36.177Z,2.50
2018-06-23T17:36:09.344Z,2.43
2018-06-23T17:38:42.628Z,2.50
2018-06-23T17:41:16.125Z,2.60
2018-06-23T17:43:49.325Z,2.17
2018-06-23T17:46:22.635Z,2.80
2018-06-23T17:48:55.900Z,2.87
2018-06-23T17:51:29.108Z,2.47
2018-06-23T17:54:02.255Z,3.30
2018-06-23T17:56:35.588Z,2.67
2018-06-23T17:59:08.808Z,2.57
2018-06-23T18:01:42.156Z,2.93
2018-06-23T18:04:15.360Z,2.80
2018-06-23T18:06:48.644Z,2.70
2018-06-23T18:09:22.109Z,2.67
2018-06-23T18:11:55.300Z,2.60
2018-06-23T18:14:28.513Z,2.90
2018-06-23T18:17:01.921Z,2.60
2018-06-23T18:19:35.321Z,2.90
2018-06-23T18:22:08.685Z,2.60
2018-06-23T18:24:41.997Z,2.57
2018-06-23T18:27:15.257Z,2.70
2018-06-23T18:29:48.608Z,2.80
2018-06-23T18:32:22.035Z,2.50
2018-06-23T18:34:55.237Z,2.37
2018-06-23T18:37:28.420Z,2.93
2018-06-23T18:40:01.845Z,2.37
2018-06-23T18:42:35.148Z,2.83
2018-06-23T18:45:08.383Z,2.40
2018-06-23T18:47:41.599Z,2.50
2018-06-23T18:50:14.788Z,2.27
2018-06-23T18:52:48.116Z,2.50
2018-06-23T18:55:21.464Z,2.50
2018-06-23T18:57:54.800Z,2.50
2018-06-23T19:00:28.181Z,2.40
2018-06-23T19:03:01.599Z,2.40
2018-06-23T19:05:34.971Z,2.60
2018-06-23T19:08:08.368Z,2.40
2018-06-23T19:10:41.684Z,2.50
2018-06-23T19:13:15.032Z,2.67
2018-06-23T19:15:48.309Z,2.50
2018-06-23T19:18:21.764Z,3.20
2018-06-23T19:20:55.100Z,2.80
2018-06-23T19:23:28.429Z,3.10
2018-06-23T19:26:01.665Z,2.67
2018-06-23T19:28:34.864Z,2.70
2018-06-23T19:31:08.132Z,2.80
2018-06-23T19:33:41.323Z,2.53
2018-06-23T19:36:14.681Z,2.87
2018-06-23T19:38:47.917Z,2.83
2018-06-23T19:41:23.820Z,3.03
2018-06-23T19:43:57.167Z,2.80
2018-06-23T19:46:30.473Z,3.90
2018-06-23T19:49:03.652Z,3.20
2018-06-23T19:51:36.905Z,3.33
2018-06-23T19:54:10.288Z,3.33
2018-06-23T19:56:43.599Z,3.47
2018-06-23T19:59:16.768Z,3.80
2018-06-23T20:01:50.030Z,3.80
2018-06-23T20:04:23.259Z,3.30
2018-06-23T20:06:56.438Z,3.40
2018-06-23T20:09:29.829Z,3.73
2018-06-23T20:12:03.212Z,3.47
2018-06-23T20:14:36.463Z,3.33
2018-06-23T20:17:09.876Z,3.90
2018-06-23T20:19:43.148Z,3.83
2018-06-23T20:22:16.454Z,3.90
2018-06-23T20:24:49.697Z,4.00
2018-06-23T20:27:22.954Z,4.07
2018-06-23T20:29:56.657Z,4.20
2018-06-23T20:32:29.836Z,4.27
2018-06-23T20:35:03.208Z,4.30
2018-06-23T20:37:36.404Z,4.23
2018-06-23T20:40:09.600Z,4.77
2018-06-23T20:42:42.846Z,4.90
2018-06-23T20:45:16.296Z,5.20
2018-06-23T20:47:49.554Z,5.50
2018-06-23T20:50:22.918Z,5.90
2018-06-23T20:52:56.348Z,5.53
2018-06-23T20:55:29.797Z,5.60
2018-06-23T20:58:03.235Z,5.50
2018-06-23T21:00:36.446Z,5.20
2018-06-23T21:03:09.869Z,4.60
2018-06-23T21:05:43.256Z,5.07
2018-06-23T21:08:16.621Z,5.13
2018-06-23T21:10:49.996Z,4.77
2018-06-23T21:13:23.437Z,5.13
2018-06-23T21:15:56.747Z,5.40
2018-06-23T21:18:29.969Z,5.10
2018-06-23T21:21:03.376Z,5.03
2018-06-23T21:23:36.681Z,5.30
2018-06-23T21:26:09.887Z,5.40
2018-06-23T21:28:43.340Z,5.40
2018-06-23T21:31:16.581Z,5.33
2018-06-23T21:33:49.869Z,5.50
2018-06-23T21:36:23.269Z,5.67
2018-06-23T21:38:56.528Z,6.03
2018-06-23T21:41:29.727Z,5.30
2018-06-23T21:44:02.964Z,5.93
2018-06-23T21:46:36.214Z,5.50
2018-06-23T21:49:09.456Z,6.20
2018-06-23T21:51:42.809Z,5.83
2018-06-23T21:54:15.979Z,6.07
2018-06-23T21:56:49.312Z,6.87
2018-06-23T21:59:22.741Z,6.57
2018-06-23T22:01:56.020Z,6.17
2018-06-23T22:04:29.369Z,6.83
2018-06-23T22:07:02.597Z,7.20
2018-06-23T22:09:35.828Z,7.10
2018-06-23T22:12:09.216Z,7.73
2018-06-23T22:14:42.408Z,7.10
2018-06-23T22:17:15.755Z,7.00
2018-06-23T22:19:49.068Z,7.53
2018-06-23T22:22:22.396Z,6.80
2018-06-23T22:24:55.697Z,7.30
2018-06-23T22:27:28.912Z,6.73
2018-06-23T22:30:02.127Z,7.10
2018-06-23T22:32:35.361Z,7.57
2018-06-23T22:35:09.212Z,6.80
2018-06-23T22:37:42.435Z,7.40
2018-06-23T22:40:15.665Z,7.23
2018-06-23T22:42:48.941Z,7.27
2018-06-23T22:45:22.135Z,7.33
2018-06-23T22:47:55.452Z,6.77
2018-06-23T22:50:28.830Z,6.90
2018-06-23T22:53:02.231Z,7.13
2018-06-23T22:55:35.552Z,6.50
2018-06-23T22:58:08.752Z,7.17
2018-06-23T23:00:42.188Z,6.83
2018-06-23T23:03:15.536Z,7.07
2018-06-23T23:05:48.806Z,6.30
2018-06-23T23:08:21.994Z,7.40
2018-06-23T23:10:55.365Z,6.33
2018-06-23T23:13:28.740Z,7.57
2018-06-23T23:16:01.984Z,7.27
2018-06-23T23:18:35.323Z,7.37
2018-06-23T23:21:08.497Z,6.67
2018-06-23T23:23:41.789Z,7.13
2018-06-23T23:26:15.109Z,7.50
2018-06-23T23:28:48.419Z,7.20
2018-06-23T23:31:21.808Z,7.43
2018-06-23T23:33:55.228Z,7.70
2018-06-23T23:36:28.652Z,7.30
2018-06-23T23:39:02.010Z,8.00
2018-06-23T23:41:35.377Z,7.00
2018-06-23T23:44:08.732Z,7.47
2018-06-23T23:46:41.997Z,8.37
2018-06-23T23:49:15.313Z,8.27
2018-06-23T23:51:48.661Z,7.97
2018-06-23T23:54:22.031Z,7.80
2018-06-23T23:56:55.301Z,8.30
2018-06-23T23:59:28.529Z,7.63
